Oak Bluffs, Massachusetts
Current Conditions -  °F | °C
As of 3:53 PM on Thursday 23 Oct 2014 (Local Time) from KMVY Reporting Station
Overcast Overcast  
Wind Chill: 59°   Ceiling: 800
Heat Index: 59°   Visibility: 10mi
Dew Point: 58°   Wind: 12mph
Humidity: 96%   Direction: 360°N
Pressure: 29.47"   Gusts: NA
Location:  41.45°N, 70.56°W
Report Text: KMVY 231953Z AUTO 36010KT 10SM BKN008 BKN016 OVC032 15/14 A2947 RMK AO2 RAB04E39 SLP979 P0022 T01500144
Loading
Personal Weather Stations






























Interactive Weather Map
Tropical Storm Tracking
New forecast layout! Learn more

10-Day Weather Forecast

Advertisements
Track Severe Weather on mobile